Time;durP1;ratioP1;P1;durP2;ratioP2;P2;SDS_P1;SDS_P2;PMS_P1;PMS_P2;Temp;Humidity;BMP_temperature;BMP_pressure;BME280_temperature;BME280_humidity;BME280_pressure;Samples;Min_cycle;Max_cycle;Signal;HPM_P1;HPM_P2
2021/07/11 00:01:23;;;;;;;1.30;1.20;;;16.80;76.20;;;;;;5074921;28;20047;-75
2021/07/11 00:03:49;;;;;;;1.90;1.08;;;16.90;76.20;;;;;;5074472;28;20032;-75
2021/07/11 00:06:15;;;;;;;1.55;1.20;;;16.70;75.40;;;;;;5079725;28;20020;-75
2021/07/11 00:08:40;;;;;;;1.85;1.10;;;16.80;75.70;;;;;;5075467;28;20162;-76
2021/07/11 00:11:06;;;;;;;1.67;1.05;;;16.80;76.40;;;;;;5074819;28;20024;-75
2021/07/11 00:13:31;;;;;;;1.27;1.13;;;16.80;76.60;;;;;;5074719;28;20032;-76
2021/07/11 00:15:57;;;;;;;1.13;1.00;;;16.90;76.80;;;;;;5074403;28;20396;-75
2021/07/11 00:18:23;;;;;;;2.25;1.08;;;16.80;76.30;;;;;;5092908;28;20026;-75
2021/07/11 00:20:48;;;;;;;4.13;1.30;;;16.80;76.70;;;;;;5074701;28;20034;-75
2021/07/11 00:23:14;;;;;;;2.13;1.33;;;16.80;76.70;;;;;;5074194;28;20024;-75
2021/07/11 00:25:40;;;;;;;1.40;0.90;;;16.80;76.90;;;;;;5074586;28;20036;-75
2021/07/11 00:28:06;;;;;;;1.00;0.90;;;16.80;76.90;;;;;;5074509;28;20461;-76
2021/07/11 00:30:32;;;;;;;2.72;1.20;;;16.80;77.10;;;;;;5074207;28;20532;-75
2021/07/11 00:32:58;;;;;;;1.10;0.73;;;16.70;75.60;;;;;;5074135;28;20453;-76
2021/07/11 00:35:24;;;;;;;1.35;0.90;;;16.60;76.80;;;;;;5092321;28;20078;-75
2021/07/11 00:37:50;;;;;;;0.93;0.90;;;16.30;77.50;;;;;;5074439;28;20024;-75
2021/07/11 00:40:16;;;;;;;0.90;0.82;;;16.30;77.60;;;;;;5074768;28;20463;-75
2021/07/11 00:42:43;;;;;;;2.45;0.98;;;16.30;77.90;;;;;;5074446;28;20051;-75
2021/07/11 00:45:10;;;;;;;0.85;0.85;;;16.20;78.30;;;;;;5074534;28;20086;-74
2021/07/11 00:47:37;;;;;;;2.75;0.88;;;16.20;78.30;;;;;;5074633;28;20043;-75
2021/07/11 00:50:08;;;;;;;1.73;1.05;;;16.30;78.40;;;;;;5057484;28;20035;-74
2021/07/11 00:52:34;;;;;;;2.70;1.08;;;16.30;78.90;;;;;;5087758;28;20135;-75
2021/07/11 00:54:59;;;;;;;3.58;1.40;;;16.40;79.10;;;;;;5074426;28;20115;-75
2021/07/11 00:57:25;;;;;;;1.58;0.90;;;16.50;79.00;;;;;;5074340;28;20020;-75
2021/07/11 00:59:51;;;;;;;1.20;1.10;;;16.50;78.70;;;;;;5074540;28;20024;-74
2021/07/11 01:02:31;;;;;;;1.33;0.95;;;16.50;78.70;;;;;;5074532;28;20450;-74
2021/07/11 01:05:07;;;;;;;2.60;1.30;;;16.50;78.70;;;;;;5077562;28;20059;-74
2021/07/11 01:07:55;;;;;;;1.35;1.23;;;16.40;79.10;;;;;;5096060;28;20016;-74
2021/07/11 01:10:31;;;;;;;1.52;1.20;;;16.40;78.80;;;;;;5047296;28;20032;-75
2021/07/11 01:12:58;;;;;;;1.67;1.08;;;16.40;78.30;;;;;;5078030;28;20031;-74
2021/07/11 01:15:25;;;;;;;2.03;1.00;;;16.40;76.10;;;;;;5078022;28;20035;-74
2021/07/11 01:17:56;;;;;;;1.20;1.10;;;16.40;76.80;;;;;;5079189;28;20112;-74
2021/07/11 01:20:56;;;;;;;2.97;1.00;;;16.40;77.60;;;;;;5077845;28;20028;-74
2021/07/11 01:23:42;;;;;;;1.42;0.98;;;16.50;78.00;;;;;;5095974;28;20016;-74
2021/07/11 01:26:10;;;;;;;1.95;1.15;;;16.40;78.20;;;;;;5077498;28;20016;-74
2021/07/11 01:28:36;;;;;;;0.98;0.95;;;16.40;78.00;;;;;;5081183;28;20085;-75
2021/07/11 01:31:04;;;;;;;1.55;0.77;;;16.40;78.50;;;;;;5079926;28;20107;-75
2021/07/11 01:33:34;;;;;;;3.20;1.20;;;16.50;78.90;;;;;;5098244;28;20070;-74
2021/07/11 01:36:00;;;;;;;3.75;1.00;;;16.50;79.00;;;;;;5079698;28;20024;-74
2021/07/11 01:38:27;;;;;;;0.95;0.70;;;16.50;79.10;;;;;;5079363;28;20024;-75
2021/07/11 01:40:53;;;;;;;1.08;1.00;;;16.50;79.10;;;;;;5078014;28;20028;-74
2021/07/11 01:43:21;;;;;;;1.65;1.10;;;16.60;79.00;;;;;;5078352;28;20111;-74
2021/07/11 01:45:52;;;;;;;2.35;1.00;;;16.60;78.90;;;;;;5078887;28;20028;-75
2021/07/11 01:48:18;;;;;;;1.77;1.17;;;16.60;78.80;;;;;;5078760;28;20024;-75
2021/07/11 01:50:46;;;;;;;2.90;1.00;;;16.50;78.80;;;;;;5096477;28;20024;-75
2021/07/11 01:53:13;;;;;;;1.48;1.05;;;16.60;78.80;;;;;;5077885;28;20132;-75
2021/07/11 01:55:39;;;;;;;1.00;0.85;;;16.60;78.80;;;;;;5077366;28;20130;-75
2021/07/11 01:58:04;;;;;;;1.10;1.00;;;16.60;78.80;;;;;;5079840;28;20028;-75
2021/07/11 02:00:31;;;;;;;1.42;1.00;;;16.60;78.40;;;;;;5084695;28;20464;-75
2021/07/11 02:02:56;;;;;;;1.35;0.90;;;16.70;78.30;;;;;;5066205;28;20020;-75
2021/07/11 02:05:22;;;;;;;1.13;0.95;;;16.70;78.20;;;;;;5099928;28;20035;-75
2021/07/11 02:07:48;;;;;;;0.93;0.93;;;16.70;78.60;;;;;;5078568;28;20020;-75
2021/07/11 02:10:17;;;;;;;1.40;1.05;;;16.70;78.70;;;;;;5077620;28;20031;-76
2021/07/11 02:12:53;;;;;;;1.55;0.90;;;16.70;78.60;;;;;;5076901;28;20031;-76
2021/07/11 02:15:18;;;;;;;0.80;0.80;;;16.70;78.70;;;;;;5076350;28;20392;-76
2021/07/11 02:17:50;;;;;;;1.25;1.05;;;16.70;78.90;;;;;;5076252;28;20464;-75
2021/07/11 02:20:16;;;;;;;1.90;1.05;;;16.70;79.10;;;;;;5076737;28;20109;-75
2021/07/11 02:22:47;;;;;;;0.90;0.90;;;16.70;79.10;;;;;;5094857;28;20107;-75
2021/07/11 02:25:16;;;;;;;1.10;0.93;;;16.70;78.90;;;;;;5076447;28;20051;-75
2021/07/11 02:27:45;;;;;;;5.35;1.27;;;16.60;78.90;;;;;;5076158;28;20030;-76
2021/07/11 02:30:15;;;;;;;1.40;1.10;;;16.60;79.00;;;;;;5076446;28;20047;-75
2021/07/11 02:32:44;;;;;;;1.73;1.50;;;16.60;79.00;;;;;;5076300;28;20028;-75
2021/07/11 02:35:13;;;;;;;1.35;1.10;;;16.60;79.00;;;;;;5094523;28;20059;-75
2021/07/11 02:37:46;;;;;;;1.98;1.20;;;16.60;79.00;;;;;;5076092;28;20020;-75
2021/07/11 02:40:12;;;;;;;1.50;1.08;;;16.60;78.90;;;;;;5076101;28;20123;-75
2021/07/11 02:42:39;;;;;;;4.05;1.45;;;16.50;78.50;;;;;;5076049;28;20082;-75
2021/07/11 02:45:07;;;;;;;0.82;0.82;;;16.50;79.00;;;;;;5076030;28;20020;-75
2021/07/11 02:47:35;;;;;;;3.00;1.70;;;16.60;79.10;;;;;;5076079;28;20516;-75
2021/07/11 02:50:05;;;;;;;2.53;1.25;;;16.60;78.80;;;;;;5075906;28;20032;-75
2021/07/11 02:52:31;;;;;;;1.65;1.00;;;16.60;78.70;;;;;;5093180;28;20059;-75
2021/07/11 02:55:10;;;;;;;2.15;1.15;;;16.60;78.50;;;;;;5075448;28;20032;-75
2021/07/11 02:57:37;;;;;;;2.10;1.23;;;16.60;78.40;;;;;;5075395;28;20372;-75
2021/07/11 03:00:06;;;;;;;1.50;1.27;;;16.50;79.30;;;;;;5075553;28;20031;-75
2021/07/11 03:02:34;;;;;;;2.33;1.27;;;16.40;79.30;;;;;;5074716;28;20027;-75
2021/07/11 03:05:00;;;;;;;2.97;1.40;;;16.40;79.30;;;;;;5075748;28;20028;-75
2021/07/11 03:07:26;;;;;;;1.40;1.00;;;16.40;79.50;;;;;;5075641;28;20090;-75
2021/07/11 03:09:52;;;;;;;1.38;1.20;;;16.50;79.70;;;;;;5075104;28;20036;-76
2021/07/11 03:12:19;;;;;;;1.10;1.00;;;16.40;79.50;;;;;;5075475;28;20495;-75
2021/07/11 03:14:50;;;;;;;1.58;0.80;;;16.40;79.50;;;;;;5075114;28;20105;-75
2021/07/11 03:17:23;;;;;;;2.20;1.58;;;16.50;79.60;;;;;;5075575;28;20016;-75
2021/07/11 03:19:53;;;;;;;1.50;1.20;;;16.50;79.80;;;;;;5075170;28;20031;-75
2021/07/11 03:22:25;;;;;;;2.00;1.42;;;16.50;80.20;;;;;;5075365;28;20077;-75
2021/07/11 03:24:53;;;;;;;1.73;1.13;;;16.60;80.30;;;;;;5075288;28;20115;-75
2021/07/11 03:27:20;;;;;;;2.17;1.13;;;16.60;80.30;;;;;;5084772;28;20016;-75
2021/07/11 03:30:10;;;;;;;1.38;1.20;;;16.60;80.20;;;;;;5075274;28;20020;-75
2021/07/11 03:32:59;;;;;;;2.22;1.08;;;16.70;80.20;;;;;;5075295;28;20027;-75
2021/07/11 03:35:53;;;;;;;1.88;1.33;;;16.60;80.00;;;;;;5075121;28;20034;-74
2021/07/11 03:38:22;;;;;;;1.73;1.40;;;16.60;80.10;;;;;;5072108;28;20028;-75
2021/07/11 03:40:53;;;;;;;2.38;1.30;;;16.60;80.20;;;;;;5074851;28;20023;-75
2021/07/11 03:43:22;;;;;;;2.33;1.40;;;16.70;80.50;;;;;;5074823;28;20021;-75
2021/07/11 03:45:50;;;;;;;1.77;1.67;;;16.60;80.50;;;;;;5075126;28;20027;-75
2021/07/11 03:48:25;;;;;;;3.83;2.00;;;16.60;80.60;;;;;;5074795;28;20051;-76
2021/07/11 03:50:55;;;;;;;3.50;2.65;;;16.60;80.60;;;;;;5069853;28;20464;-75
2021/07/11 03:53:24;;;;;;;6.03;5.13;;;16.60;80.70;;;;;;5074515;28;20381;-75
2021/07/11 03:55:51;;;;;;;15.35;12.77;;;16.60;80.60;;;;;;5093062;28;20085;-76
2021/07/11 03:58:20;;;;;;;16.52;13.57;;;16.50;80.90;;;;;;5058197;28;20032;-75
2021/07/11 04:00:48;;;;;;;10.38;9.07;;;16.40;81.20;;;;;;5074996;28;20066;-75
2021/07/11 04:03:16;;;;;;;2.03;1.83;;;16.40;81.40;;;;;;5091887;28;20453;-75
2021/07/11 04:05:44;;;;;;;1.48;1.38;;;16.30;79.50;;;;;;5074865;28;20070;-75
2021/07/11 04:08:15;;;;;;;1.50;1.40;;;16.30;79.20;;;;;;5074697;28;20512;-75
2021/07/11 04:10:41;;;;;;;2.92;1.48;;;16.30;79.30;;;;;;5093055;28;20099;-75
2021/07/11 04:13:08;;;;;;;3.38;1.63;;;16.30;79.10;;;;;;5093199;28;20028;-75
2021/07/11 04:15:34;;;;;;;2.25;1.60;;;16.30;79.10;;;;;;5107288;28;20127;-75
2021/07/11 04:18:06;;;;;;;2.47;1.73;;;16.40;79.60;;;;;;5091701;28;20129;-74
2021/07/11 04:20:33;;;;;;;3.75;1.80;;;16.40;79.80;;;;;;5074149;28;20024;-74
2021/07/11 04:23:01;;;;;;;3.40;1.95;;;16.50;80.10;;;;;;5074651;28;20024;-74
2021/07/11 04:25:31;;;;;;;2.55;1.85;;;16.50;80.50;;;;;;5092880;28;20028;-74
2021/07/11 04:27:57;;;;;;;3.70;1.83;;;16.40;81.50;;;;;;5074925;28;20107;-74
2021/07/11 04:30:23;;;;;;;2.00;1.80;;;16.40;81.60;;;;;;5092922;28;20077;-74
2021/07/11 04:32:49;;;;;;;2.42;1.67;;;16.40;81.70;;;;;;5074308;28;20024;-75
2021/07/11 04:35:15;;;;;;;2.00;1.38;;;16.40;81.70;;;;;;5074674;28;20036;-74
2021/07/11 04:37:42;;;;;;;7.22;1.45;;;16.40;82.00;;;;;;5074693;28;20028;-74
2021/07/11 04:40:09;;;;;;;1.90;1.33;;;16.30;82.10;;;;;;5096382;28;20480;-75
2021/07/11 04:42:35;;;;;;;1.30;1.20;;;16.30;82.40;;;;;;5078330;28;20472;-75
2021/07/11 04:45:02;;;;;;;2.25;1.48;;;16.30;82.60;;;;;;5078499;28;20073;-75
2021/07/11 04:47:27;;;;;;;2.72;1.30;;;16.30;82.70;;;;;;5096576;28;20114;-75
2021/07/11 04:49:53;;;;;;;2.85;1.40;;;16.40;82.70;;;;;;5078159;28;20165;-75
2021/07/11 04:52:18;;;;;;;1.98;1.60;;;16.40;82.40;;;;;;5077977;28;20507;-77
2021/07/11 04:54:44;;;;;;;1.25;1.15;;;16.50;82.10;;;;;;5078041;28;20043;-75
2021/07/11 04:57:10;;;;;;;4.03;1.70;;;16.60;81.40;;;;;;5077930;28;20016;-74
2021/07/11 04:59:35;;;;;;;4.88;1.38;;;16.60;80.70;;;;;;5078227;28;20031;-75
2021/07/11 05:02:01;;;;;;;2.85;1.73;;;16.60;80.60;;;;;;5078280;28;20038;-75
2021/07/11 05:04:32;;;;;;;2.42;1.40;;;16.80;80.70;;;;;;5077932;28;20030;-74
2021/07/11 05:06:58;;;;;;;1.60;1.25;;;16.80;80.50;;;;;;5078168;28;20115;-75
2021/07/11 05:09:24;;;;;;;1.40;1.30;;;16.90;80.50;;;;;;5077980;28;20119;-75
2021/07/11 05:11:49;;;;;;;5.93;1.80;;;16.90;80.70;;;;;;5077926;28;20471;-75
2021/07/11 05:14:15;;;;;;;2.50;1.30;;;16.90;80.50;;;;;;5077865;28;20073;-76
2021/07/11 05:16:41;;;;;;;2.25;1.40;;;16.80;80.40;;;;;;5077859;28;20032;-76
2021/07/11 05:19:09;;;;;;;1.85;1.55;;;16.80;80.30;;;;;;5077486;28;20053;-77
2021/07/11 05:21:34;;;;;;;2.00;1.38;;;16.80;80.40;;;;;;5077823;28;20032;-74
2021/07/11 05:24:00;;;;;;;4.40;1.63;;;16.70;80.50;;;;;;5095596;28;20039;-75
2021/07/11 05:26:26;;;;;;;2.03;1.35;;;16.70;80.00;;;;;;5077462;28;20091;-74
2021/07/11 05:28:51;;;;;;;3.83;1.48;;;16.60;80.00;;;;;;5077431;28;20582;-74
2021/07/11 05:31:18;;;;;;;1.63;1.23;;;16.60;80.20;;;;;;5077759;28;20036;-77
2021/07/11 05:33:44;;;;;;;2.03;1.48;;;16.70;80.30;;;;;;5077323;28;20455;-75
2021/07/11 05:36:11;;;;;;;2.92;2.00;;;16.80;80.10;;;;;;5077745;28;20027;-75
2021/07/11 05:38:39;;;;;;;4.07;2.33;;;16.80;79.80;;;;;;5077531;28;20024;-74
2021/07/11 05:41:04;;;;;;;5.78;3.85;;;16.90;79.70;;;;;;5077575;28;20067;-74
2021/07/11 05:43:30;;;;;;;3.35;2.25;;;16.90;79.40;;;;;;5077608;28;20040;-74
2021/07/11 05:45:56;;;;;;;4.30;2.58;;;16.90;79.50;;;;;;5077322;28;20059;-74
2021/07/11 05:48:22;;;;;;;3.25;1.95;;;17.00;79.50;;;;;;5077144;28;20144;-74
2021/07/11 05:50:48;;;;;;;2.83;1.90;;;17.00;79.40;;;;;;5077047;28;20082;-74
2021/07/11 05:53:14;;;;;;;3.80;1.98;;;17.10;79.60;;;;;;5077476;28;20048;-75
2021/07/11 05:55:40;;;;;;;3.28;2.03;;;17.30;79.10;;;;;;5077262;28;20125;-74
2021/07/11 05:58:07;;;;;;;2.72;1.67;;;17.50;78.70;;;;;;5077206;28;20032;-77
2021/07/11 06:00:35;;;;;;;2.88;1.90;;;17.80;78.00;;;;;;5076406;28;20062;-74
2021/07/11 06:03:01;;;;;;;2.03;1.73;;;18.00;77.20;;;;;;5077018;28;20017;-75
2021/07/11 06:05:27;;;;;;;3.92;1.60;;;18.20;76.90;;;;;;5077053;28;20024;-76
2021/07/11 06:07:53;;;;;;;3.05;1.63;;;18.20;76.00;;;;;;5076893;28;20052;-76
2021/07/11 06:10:19;;;;;;;4.63;1.85;;;18.30;75.50;;;;;;5076849;28;20064;-77
2021/07/11 06:12:44;;;;;;;2.92;1.55;;;18.30;74.80;;;;;;5076694;28;20056;-74
2021/07/11 06:15:11;;;;;;;24.13;15.25;;;18.20;74.20;;;;;;5077254;28;20040;-75
2021/07/11 06:17:37;;;;;;;6.50;4.28;;;18.20;74.60;;;;;;5076601;28;20388;-77
2021/07/11 06:20:08;;;;;;;3.95;1.73;;;18.20;74.60;;;;;;5094965;28;20173;-75
2021/07/11 06:22:35;;;;;;;3.83;1.83;;;18.30;73.10;;;;;;5094768;28;20016;-75
2021/07/11 06:25:06;;;;;;;2.88;2.22;;;18.30;72.90;;;;;;5094839;28;20024;-75
2021/07/11 06:27:43;;;;;;;3.88;2.40;;;18.40;72.20;;;;;;5094554;28;20066;-76
2021/07/11 06:30:14;;;;;;;3.63;1.73;;;18.60;71.70;;;;;;5076425;28;20024;-77
2021/07/11 06:32:41;;;;;;;2.00;1.60;;;18.70;71.30;;;;;;5076302;28;20016;-76
2021/07/11 06:35:09;;;;;;;4.00;1.90;;;18.80;70.90;;;;;;5094458;28;20032;-76
2021/07/11 06:37:35;;;;;;;2.33;1.90;;;18.80;70.90;;;;;;5094449;28;20012;-75
2021/07/11 06:40:01;;;;;;;2.42;1.85;;;18.80;71.10;;;;;;5094388;28;20103;-76
2021/07/11 06:42:27;;;;;;;1.67;1.50;;;18.80;71.30;;;;;;5094391;28;20031;-77
2021/07/11 06:44:53;;;;;;;1.75;1.45;;;18.90;70.80;;;;;;5075793;28;20028;-77
2021/07/11 06:47:18;;;;;;;3.60;1.95;;;18.80;69.90;;;;;;5076196;28;20434;-76
2021/07/11 06:49:44;;;;;;;4.18;2.03;;;18.60;70.40;;;;;;5094367;28;20088;-77
2021/07/11 06:52:10;;;;;;;2.45;2.03;;;18.50;70.40;;;;;;5076263;28;20039;-75
2021/07/11 06:54:36;;;;;;;2.70;2.03;;;18.50;71.00;;;;;;5075886;28;20043;-77
2021/07/11 06:57:03;;;;;;;2.13;1.92;;;18.40;71.30;;;;;;5093945;28;20047;-75
2021/07/11 06:59:28;;;;;;;3.53;2.53;;;18.50;71.90;;;;;;5094130;28;20103;-76
2021/07/11 07:01:54;;;;;;;3.55;2.42;;;18.50;72.00;;;;;;5093229;28;20535;-75
2021/07/11 07:04:20;;;;;;;3.85;2.05;;;18.60;71.70;;;;;;5093922;28;20077;-76
2021/07/11 07:06:45;;;;;;;1.88;1.67;;;18.80;71.70;;;;;;5075140;28;20032;-75
2021/07/11 07:09:11;;;;;;;3.42;2.10;;;18.90;71.00;;;;;;5093744;28;20016;-76
2021/07/11 07:11:36;;;;;;;2.95;2.65;;;18.80;69.90;;;;;;5075411;28;20027;-74
2021/07/11 07:14:05;;;;;;;4.45;2.30;;;18.80;70.60;;;;;;5075224;28;20224;-75
2021/07/11 07:16:30;;;;;;;2.58;1.92;;;18.80;69.90;;;;;;5093776;28;20028;-74
2021/07/11 07:18:56;;;;;;;2.72;1.90;;;18.80;70.40;;;;;;5093560;28;20519;-74
2021/07/11 07:21:22;;;;;;;2.58;1.90;;;18.80;70.20;;;;;;5093714;28;20028;-74
2021/07/11 07:23:47;;;;;;;2.70;2.00;;;18.70;70.40;;;;;;5093833;28;20024;-74
2021/07/11 07:26:13;;;;;;;3.50;2.10;;;18.60;71.20;;;;;;5093523;28;20036;-75
2021/07/11 07:28:38;;;;;;;2.35;1.77;;;18.70;71.30;;;;;;5075974;28;20030;-77
2021/07/11 07:31:04;;;;;;;16.38;3.65;;;18.70;71.60;;;;;;5076123;28;20031;-75
2021/07/11 07:33:30;;;;;;;4.85;2.30;;;18.80;73.30;;;;;;5077529;28;20085;-73
2021/07/11 07:35:56;;;;;;;3.33;2.47;;;19.00;73.30;;;;;;5081486;28;20074;-73
2021/07/11 07:38:22;;;;;;;5.93;2.13;;;19.20;71.00;;;;;;5102901;28;20024;-72
2021/07/11 07:40:48;;;;;;;5.95;2.00;;;19.30;69.50;;;;;;5082330;28;20043;-72
2021/07/11 07:43:14;;;;;;;5.03;2.03;;;19.50;69.80;;;;;;5094986;28;20016;-75
2021/07/11 07:45:43;;;;;;;3.38;1.75;;;19.60;66.90;;;;;;5075896;28;20017;-74
2021/07/11 07:48:10;;;;;;;5.72;2.50;;;19.80;64.80;;;;;;5094596;28;20442;-74
2021/07/11 07:50:37;;;;;;;2.30;2.10;;;19.90;63.40;;;;;;5094076;28;20511;-75
2021/07/11 07:53:03;;;;;;;3.35;2.05;;;19.80;64.60;;;;;;5075393;28;20400;-76
2021/07/11 07:55:30;;;;;;;1.98;1.77;;;19.90;63.90;;;;;;5093507;28;20040;-76
2021/07/11 07:57:56;;;;;;;4.35;1.80;;;20.20;64.30;;;;;;5075596;28;20024;-73
2021/07/11 08:00:21;;;;;;;2.53;1.80;;;20.30;62.80;;;;;;5093726;28;20095;-77
2021/07/11 08:02:47;;;;;;;4.75;1.75;;;20.20;59.50;;;;;;5093440;28;20035;-75
2021/07/11 08:05:13;;;;;;;2.45;1.92;;;20.10;60.00;;;;;;5093664;28;20032;-74
2021/07/11 08:07:39;;;;;;;2.00;1.58;;;20.10;61.10;;;;;;5093149;28;20415;-78
2021/07/11 08:10:06;;;;;;;1.67;1.30;;;20.20;61.50;;;;;;5075086;28;20028;-74
2021/07/11 08:12:32;;;;;;;1.98;1.50;;;20.30;62.20;;;;;;5094227;28;20028;-72
2021/07/11 08:14:58;;;;;;;2.67;1.92;;;20.30;63.20;;;;;;5078974;28;20381;-71
2021/07/11 08:17:23;;;;;;;4.07;2.15;;;20.30;61.40;;;;;;5078833;28;20016;-72
2021/07/11 08:19:49;;;;;;;2.80;1.85;;;20.40;61.80;;;;;;5079144;28;20115;-74
2021/07/11 08:22:15;;;;;;;2.97;2.15;;;20.40;62.80;;;;;;5098463;28;20020;-76
2021/07/11 08:24:40;;;;;;;2.53;2.20;;;20.40;62.20;;;;;;5098121;28;20123;-75
2021/07/11 08:27:06;;;;;;;2.20;1.90;;;20.40;62.30;;;;;;5098257;28;20089;-77
2021/07/11 08:29:33;;;;;;;3.67;2.47;;;20.20;62.30;;;;;;5098079;28;20031;-73
2021/07/11 08:31:59;;;;;;;2.85;2.55;;;20.20;62.10;;;;;;5078938;28;20392;-73
2021/07/11 08:34:25;;;;;;;3.67;2.67;;;20.30;61.70;;;;;;5078856;28;20028;-73
2021/07/11 08:36:52;;;;;;;4.53;2.30;;;20.10;62.60;;;;;;5078656;28;20039;-73
2021/07/11 08:39:23;;;;;;;3.42;1.80;;;19.80;64.10;;;;;;5078717;28;20035;-76
2021/07/11 08:41:48;;;;;;;3.15;1.95;;;19.60;63.90;;;;;;5096918;28;20024;-79
2021/07/11 08:44:14;;;;;;;4.38;2.05;;;19.60;65.60;;;;;;5078416;28;20042;-75
2021/07/11 08:46:39;;;;;;;2.45;2.13;;;19.90;65.70;;;;;;5096207;28;20086;-74
2021/07/11 08:49:06;;;;;;;2.55;1.77;;;20.10;65.30;;;;;;5096634;28;20036;-79
2021/07/11 08:51:33;;;;;;;2.13;1.58;;;20.30;61.60;;;;;;5096519;28;20361;-74
2021/07/11 08:54:00;;;;;;;3.17;1.63;;;20.40;60.10;;;;;;5096014;28;20048;-78
2021/07/11 08:56:28;;;;;;;2.28;1.42;;;20.40;58.20;;;;;;5096359;28;20042;-75
2021/07/11 08:58:56;;;;;;;2.53;1.70;;;20.50;60.40;;;;;;5078432;28;20020;-75
2021/07/11 09:01:24;;;;;;;2.08;1.83;;;20.20;60.80;;;;;;5077727;28;20028;-77
2021/07/11 09:04:10;;;;;;;3.60;2.88;;;19.80;61.30;;;;;;5077960;28;20027;-76
2021/07/11 09:06:48;;;;;;;2.28;2.05;;;19.60;63.20;;;;;;5077612;28;20487;-78
2021/07/11 09:09:33;;;;;;;4.00;2.13;;;19.60;64.00;;;;;;5077991;28;20402;-78
2021/07/11 09:12:19;;;;;;;3.47;2.15;;;19.40;67.80;;;;;;5077969;28;20024;-79
2021/07/11 09:14:45;;;;;;;3.90;2.35;;;19.20;70.70;;;;;;5077807;28;20579;-75
2021/07/11 09:17:12;;;;;;;3.35;2.22;;;19.00;71.00;;;;;;5077845;28;20110;-75
2021/07/11 09:19:51;;;;;;;3.03;2.30;;;18.70;73.00;;;;;;5095619;28;20028;-75
2021/07/11 09:22:16;;;;;;;3.03;2.10;;;18.60;74.50;;;;;;5096050;28;20016;-74
2021/07/11 09:24:47;;;;;;;6.07;4.60;;;18.50;74.90;;;;;;5094782;28;20028;-75
2021/07/11 09:27:25;;;;;;;4.22;2.03;;;18.60;72.40;;;;;;5077634;28;20073;-76
2021/07/11 09:29:51;;;;;;;3.60;2.42;;;18.60;71.00;;;;;;5077783;28;20345;-77
2021/07/11 09:32:23;;;;;;;2.05;1.83;;;18.70;71.50;;;;;;5077566;28;20030;-75
2021/07/11 09:34:49;;;;;;;2.20;1.75;;;18.90;71.70;;;;;;5095246;28;20036;-77
2021/07/11 09:37:20;;;;;;;2.17;1.80;;;19.20;69.90;;;;;;5095694;28;20020;-75
2021/07/11 09:39:58;;;;;;;3.17;2.13;;;19.40;66.90;;;;;;5077886;28;20021;-76
2021/07/11 09:42:29;;;;;;;3.08;2.17;;;19.60;66.90;;;;;;5095631;28;20405;-75
2021/07/11 09:45:03;;;;;;;3.03;1.63;;;19.90;66.90;;;;;;5096173;28;20081;-75
2021/07/11 09:47:31;;;;;;;2.15;1.88;;;20.20;66.60;;;;;;5078137;28;20020;-74
2021/07/11 09:50:10;;;;;;;3.30;2.03;;;20.50;64.90;;;;;;5095477;28;20131;-74
2021/07/11 09:52:40;;;;;;;2.33;1.63;;;20.70;64.40;;;;;;5095152;28;20443;-76
2021/07/11 09:55:09;;;;;;;2.75;1.73;;;20.80;61.90;;;;;;5094886;28;20392;-77
2021/07/11 09:57:41;;;;;;;2.38;1.90;;;20.80;61.40;;;;;;5095171;28;20031;-75
2021/07/11 10:00:13;;;;;;;2.90;2.03;;;20.90;61.70;;;;;;5077156;28;20020;-75
2021/07/11 10:02:41;;;;;;;2.15;1.40;;;20.90;62.30;;;;;;5094769;28;20111;-75
2021/07/11 10:05:08;;;;;;;2.88;2.08;;;21.00;61.80;;;;;;5076857;28;20028;-75
2021/07/11 10:07:36;;;;;;;2.53;1.55;;;21.20;61.90;;;;;;5094594;28;20106;-75
2021/07/11 10:10:05;;;;;;;2.72;1.90;;;21.30;61.30;;;;;;5076782;28;20039;-74
2021/07/11 10:12:31;;;;;;;2.30;1.75;;;21.50;61.20;;;;;;5094746;28;20031;-75
2021/07/11 10:14:56;;;;;;;2.75;1.50;;;21.70;60.80;;;;;;5095063;28;20027;-77
2021/07/11 10:17:24;;;;;;;4.13;1.90;;;22.00;60.70;;;;;;5094635;28;20028;-76
2021/07/11 10:19:51;;;;;;;1.08;0.90;;;22.40;60.00;;;;;;5076700;28;20062;-77
2021/07/11 10:22:18;;;;;;;3.08;1.23;;;22.40;49.50;;;;;;5094840;28;20419;-77
2021/07/11 10:24:47;;;;;;;2.30;1.17;;;21.90;48.40;;;;;;5094497;28;20032;-74
2021/07/11 10:27:25;;;;;;;4.10;1.60;;;21.70;49.20;;;;;;5076660;28;20393;-73
2021/07/11 10:29:56;;;;;;;1.67;1.35;;;22.00;49.80;;;;;;5095086;28;20095;-73
2021/07/11 10:32:28;;;;;;;1.55;1.00;;;22.30;50.00;;;;;;5076796;28;20498;-73
2021/07/11 10:34:54;;;;;;;1.20;0.80;;;22.50;51.00;;;;;;5076029;28;20427;-74
2021/07/11 10:37:22;;;;;;;2.17;1.40;;;22.20;48.90;;;;;;5076400;28;20032;-74
2021/07/11 10:40:08;;;;;;;2.33;1.58;;;21.80;55.10;;;;;;5076066;28;20020;-75
2021/07/11 10:42:34;;;;;;;2.30;1.70;;;21.80;58.20;;;;;;5076062;28;20104;-76
2021/07/11 10:45:09;;;;;;;2.20;1.60;;;21.50;59.00;;;;;;5076275;28;20056;-74
2021/07/11 10:47:35;;;;;;;2.42;1.45;;;21.40;57.50;;;;;;5071481;28;20498;-74
2021/07/11 10:50:01;;;;;;;2.13;1.42;;;21.30;56.90;;;;;;5094003;28;20085;-74
2021/07/11 10:52:27;;;;;;;3.13;1.65;;;21.40;55.80;;;;;;5093974;28;20102;-74
2021/07/11 10:54:58;;;;;;;2.30;1.60;;;21.50;56.80;;;;;;5075875;28;20039;-74
2021/07/11 10:57:31;;;;;;;2.25;1.50;;;21.50;56.00;;;;;;5094117;28;20357;-75
2021/07/11 11:00:08;;;;;;;1.17;1.02;;;21.20;56.70;;;;;;5075968;28;20028;-75
2021/07/11 11:02:34;;;;;;;2.40;1.55;;;21.50;56.50;;;;;;5093887;28;20017;-75
2021/07/11 11:05:13;;;;;;;1.20;1.10;;;22.00;54.30;;;;;;5093889;28;20380;-75
2021/07/11 11:08:07;;;;;;;1.70;1.38;;;22.40;53.20;;;;;;5075665;28;20056;-75
2021/07/11 11:10:35;;;;;;;2.17;1.23;;;22.30;52.10;;;;;;5093704;28;20545;-75
2021/07/11 11:13:11;;;;;;;2.78;1.50;;;22.10;52.50;;;;;;5093389;28;20036;-76
2021/07/11 11:15:47;;;;;;;2.88;1.30;;;22.00;51.30;;;;;;5075376;28;20541;-77
2021/07/11 11:18:20;;;;;;;1.30;1.10;;;21.80;51.00;;;;;;5075681;28;20059;-76
2021/07/11 11:20:55;;;;;;;2.95;1.10;;;21.90;51.40;;;;;;5075789;28;20050;-75
2021/07/11 11:23:21;;;;;;;1.35;1.23;;;21.80;50.60;;;;;;5075616;28;20073;-75
2021/07/11 11:25:47;;;;;;;1.73;1.13;;;21.90;53.60;;;;;;5075252;28;20430;-75
2021/07/11 11:28:24;;;;;;;1.20;1.10;;;21.90;52.50;;;;;;5075605;28;20078;-74
2021/07/11 11:30:50;;;;;;;3.15;1.02;;;22.00;50.40;;;;;;5075254;28;20059;-76
2021/07/11 11:33:15;;;;;;;1.63;1.20;;;22.00;48.70;;;;;;5075164;28;20056;-75
2021/07/11 11:35:46;;;;;;;3.88;1.60;;;21.90;50.70;;;;;;5075047;28;20085;-75
2021/07/11 11:38:11;;;;;;;1.92;1.55;;;21.70;55.20;;;;;;5075357;28;20038;-75
2021/07/11 11:40:37;;;;;;;2.10;1.70;;;21.70;58.40;;;;;;5075246;28;20016;-75
2021/07/11 11:43:05;;;;;;;2.20;1.90;;;22.00;59.10;;;;;;5075387;28;20024;-75
2021/07/11 11:45:35;;;;;;;3.90;2.72;;;22.30;58.30;;;;;;5075117;28;20024;-78
2021/07/11 11:48:07;;;;;;;2.90;1.40;;;22.60;55.70;;;;;;5092835;28;20028;-75
2021/07/11 11:50:35;;;;;;;1.80;1.10;;;22.60;53.90;;;;;;5075436;28;20031;-77
2021/07/11 11:53:07;;;;;;;1.65;1.10;;;22.50;50.40;;;;;;5093363;28;20040;-75
2021/07/11 11:55:35;;;;;;;1.00;0.90;;;22.80;48.00;;;;;;5074576;28;20393;-76
2021/07/11 11:58:03;;;;;;;1.60;1.23;;;23.00;47.40;;;;;;5074818;28;20021;-75
2021/07/11 12:00:29;;;;;;;1.83;1.38;;;23.40;48.30;;;;;;5074587;28;20028;-76
2021/07/11 12:03:04;;;;;;;2.83;1.48;;;23.50;51.80;;;;;;5092946;28;20032;-76
2021/07/11 12:05:31;;;;;;;2.70;1.13;;;23.50;50.10;;;;;;5074955;28;20047;-76
2021/07/11 12:07:58;;;;;;;2.08;1.60;;;22.90;52.40;;;;;;5075067;28;20024;-78
2021/07/11 12:10:24;;;;;;;1.58;1.10;;;23.10;52.40;;;;;;5075124;28;20028;-76
2021/07/11 12:12:59;;;;;;;1.63;1.25;;;23.50;51.30;;;;;;5092953;28;20024;-78
2021/07/11 12:15:33;;;;;;;1.17;1.08;;;23.60;50.20;;;;;;5074343;28;20086;-74
2021/07/11 12:18:01;;;;;;;2.35;1.40;;;23.50;49.40;;;;;;5092703;28;20117;-76
2021/07/11 12:20:27;;;;;;;1.55;1.27;;;23.20;49.60;;;;;;5074426;28;20472;-75
2021/07/11 12:22:52;;;;;;;2.05;1.27;;;22.90;50.40;;;;;;5074398;28;20027;-78
2021/07/11 12:25:25;;;;;;;1.73;1.10;;;22.90;50.80;;;;;;5074775;28;20032;-78
2021/07/11 12:28:02;;;;;;;1.33;0.90;;;23.10;51.00;;;;;;5074664;28;20031;-78
2021/07/11 12:30:46;;;;;;;1.42;1.17;;;23.20;50.50;;;;;;5074845;28;20415;-78
2021/07/11 12:33:24;;;;;;;4.40;1.48;;;23.50;50.30;;;;;;5092874;28;20042;-75
2021/07/11 12:35:51;;;;;;;2.22;1.10;;;23.40;49.50;;;;;;5092685;28;20043;-76
2021/07/11 12:38:38;;;;;;;1.45;1.15;;;23.30;48.80;;;;;;5074688;28;20384;-77
2021/07/11 12:41:07;;;;;;;1.92;1.42;;;23.40;49.10;;;;;;5074541;28;20385;-78
2021/07/11 12:43:48;;;;;;;1.58;1.08;;;23.60;49.00;;;;;;5074387;28;20020;-76
2021/07/11 12:46:16;;;;;;;1.20;1.10;;;23.80;49.50;;;;;;5074622;28;20028;-78
2021/07/11 12:48:48;;;;;;;3.08;1.45;;;23.60;47.40;;;;;;5092690;28;20100;-78
2021/07/11 12:51:36;;;;;;;1.33;1.08;;;23.60;48.10;;;;;;5075368;28;20090;-78
2021/07/11 12:54:15;;;;;;;2.03;1.58;;;23.80;48.60;;;;;;5074438;28;20117;-77